createdAt,value
2023-02-09T00:01:30.921Z,54.08
2023-02-09T00:03:59.282Z,54.11
2023-02-09T00:06:27.142Z,54.14
2023-02-09T00:08:54.342Z,54.27
2023-02-09T00:11:46.309Z,54.55
2023-02-09T00:14:16.179Z,54.27
2023-02-09T00:16:43.493Z,54.17
2023-02-09T00:19:12.472Z,54.38
2023-02-09T00:21:40.618Z,54.13
2023-02-09T00:24:10.677Z,54.07
2023-02-09T00:26:37.901Z,54.44
2023-02-09T00:29:05.030Z,54.06
2023-02-09T00:31:32.170Z,54.37
2023-02-09T00:34:00.142Z,54.53
2023-02-09T00:36:28.314Z,54.42
2023-02-09T00:38:55.224Z,54.50
2023-02-09T00:41:42.338Z,54.70
2023-02-09T00:44:11.048Z,54.74
2023-02-09T00:46:38.112Z,54.81
2023-02-09T00:49:05.543Z,54.47
2023-02-09T00:51:32.844Z,54.63
2023-02-09T00:54:01.886Z,55.23
2023-02-09T00:56:28.772Z,54.96
2023-02-09T00:58:55.705Z,54.79
2023-02-09T01:01:22.629Z,54.85
2023-02-09T01:03:49.559Z,54.82
2023-02-09T01:06:16.466Z,54.90
2023-02-09T01:08:43.446Z,54.88
2023-02-09T01:11:15.400Z,54.77
2023-02-09T01:13:44.141Z,54.82
2023-02-09T01:16:17.480Z,54.96
2023-02-09T01:18:45.395Z,54.75
2023-02-09T01:21:13.927Z,55.15
2023-02-09T01:23:40.837Z,55.05
2023-02-09T01:26:09.331Z,55.19
2023-02-09T01:28:37.029Z,55.12
2023-02-09T01:31:05.853Z,54.77
2023-02-09T01:33:33.243Z,55.17
2023-02-09T01:36:04.874Z,55.00
2023-02-09T01:38:31.774Z,55.18
2023-02-09T01:40:58.655Z,55.31
2023-02-09T01:43:25.596Z,55.05
2023-02-09T01:45:55.219Z,54.99
2023-02-09T01:48:28.654Z,55.04
2023-02-09T01:50:59.734Z,55.37
2023-02-09T01:53:27.498Z,55.29
2023-02-09T01:56:05.624Z,55.79
2023-02-09T01:58:33.423Z,55.41
2023-02-09T02:01:03.764Z,55.37
2023-02-09T02:03:32.089Z,55.63
2023-02-09T02:06:19.670Z,55.36
2023-02-09T02:08:58.092Z,55.43
2023-02-09T02:11:28.219Z,55.48
2023-02-09T02:13:57.954Z,55.44
2023-02-09T02:17:21.352Z,55.35
2023-02-09T02:20:39.161Z,55.19
2023-02-09T02:23:43.177Z,55.39
2023-02-09T02:27:07.206Z,55.53
2023-02-09T02:29:47.045Z,55.52
2023-02-09T02:32:22.548Z,55.45
2023-02-09T02:35:19.108Z,55.11
2023-02-09T02:38:03.829Z,55.74
2023-02-09T02:41:19.167Z,55.25
2023-02-09T02:44:06.527Z,55.55
2023-02-09T02:46:45.349Z,55.27
2023-02-09T02:49:26.505Z,55.77
2023-02-09T02:51:58.839Z,55.06
2023-02-09T02:54:32.811Z,55.34
2023-02-09T02:57:06.987Z,55.12
2023-02-09T02:59:41.909Z,55.58
2023-02-09T03:02:31.618Z,55.27
2023-02-09T03:05:00.424Z,55.30
2023-02-09T03:07:27.348Z,55.31
2023-02-09T03:09:56.801Z,55.26
2023-02-09T03:12:52.756Z,55.09
2023-02-09T03:15:49.592Z,55.75
2023-02-09T03:19:23.352Z,55.34
2023-02-09T03:21:58.115Z,54.80
2023-02-09T03:24:59.879Z,55.42
2023-02-09T03:27:40.609Z,55.53
2023-02-09T03:30:10.810Z,55.50
2023-02-09T03:32:40.439Z,55.15
2023-02-09T03:35:11.073Z,55.62
2023-02-09T03:37:38.183Z,55.35
2023-02-09T03:40:05.959Z,55.52
2023-02-09T03:42:32.865Z,55.26
2023-02-09T03:44:59.783Z,55.37
2023-02-09T03:47:26.723Z,55.46
2023-02-09T03:49:53.623Z,55.14
2023-02-09T03:52:20.517Z,54.93
2023-02-09T03:54:47.871Z,55.37
2023-02-09T03:57:14.930Z,55.51
2023-02-09T03:59:42.035Z,55.11
2023-02-09T04:02:09.966Z,55.13
2023-02-09T04:04:37.329Z,55.03
2023-02-09T04:07:04.762Z,55.34
2023-02-09T04:09:31.683Z,55.21
2023-02-09T04:11:58.572Z,55.12
2023-02-09T04:14:25.512Z,55.62
2023-02-09T04:16:52.411Z,55.36
2023-02-09T04:19:19.342Z,55.05
2023-02-09T04:21:46.211Z,55.14
2023-02-09T04:24:13.124Z,55.19
2023-02-09T04:26:40.042Z,54.87
2023-02-09T04:29:07.012Z,55.03
2023-02-09T04:31:34.971Z,55.45
2023-02-09T04:34:02.185Z,55.19
2023-02-09T04:36:29.176Z,54.74
2023-02-09T04:38:56.149Z,55.07
2023-02-09T04:41:23.067Z,55.30
2023-02-09T04:43:50.777Z,55.24
2023-02-09T04:46:19.096Z,54.96
2023-02-09T04:48:46.495Z,55.34
2023-02-09T04:51:13.582Z,55.30
2023-02-09T04:53:40.509Z,55.05
2023-02-09T04:56:07.409Z,55.13
2023-02-09T04:58:53.244Z,54.75
2023-02-09T05:01:24.335Z,54.83
2023-02-09T05:03:51.841Z,54.88
2023-02-09T05:06:19.406Z,54.83
2023-02-09T05:08:46.398Z,54.88
2023-02-09T05:11:13.313Z,55.42
2023-02-09T05:13:40.212Z,54.93
2023-02-09T05:16:09.598Z,55.22
2023-02-09T05:18:36.745Z,55.04
2023-02-09T05:21:04.562Z,54.75
2023-02-09T05:23:31.652Z,55.05
2023-02-09T05:25:58.663Z,55.10
2023-02-09T05:28:25.963Z,55.18
2023-02-09T05:30:55.822Z,54.95
2023-02-09T05:33:25.446Z,54.77
2023-02-09T05:35:53.865Z,55.02
2023-02-09T05:38:20.752Z,54.92
2023-02-09T05:40:47.949Z,54.67
2023-02-09T05:43:14.997Z,54.79
2023-02-09T05:45:41.951Z,55.10
2023-02-09T05:48:08.885Z,55.27
2023-02-09T05:50:35.985Z,54.78
2023-02-09T05:53:08.216Z,54.69
2023-02-09T05:55:35.115Z,54.60
2023-02-09T05:58:01.992Z,55.11
2023-02-09T06:00:29.914Z,54.72
2023-02-09T06:02:58.501Z,54.57
2023-02-09T06:05:26.088Z,55.04
2023-02-09T06:07:53.017Z,55.01
2023-02-09T06:10:20.288Z,55.09
2023-02-09T06:12:47.539Z,54.87
2023-02-09T06:15:17.887Z,54.51
2023-02-09T06:17:45.013Z,54.57
2023-02-09T06:20:12.286Z,55.22
2023-02-09T06:22:39.189Z,55.10
2023-02-09T06:25:06.491Z,54.83
2023-02-09T06:27:33.359Z,54.92
2023-02-09T06:30:00.347Z,55.24
2023-02-09T06:32:27.226Z,55.26
2023-02-09T06:34:54.149Z,54.82
2023-02-09T06:37:21.066Z,54.60
2023-02-09T06:39:47.970Z,54.64
2023-02-09T06:42:14.860Z,55.11
2023-02-09T06:44:41.759Z,54.86
2023-02-09T06:47:08.633Z,54.43
2023-02-09T06:49:35.529Z,55.01
2023-02-09T06:52:02.577Z,54.57
2023-02-09T06:54:29.484Z,55.06
2023-02-09T06:56:56.440Z,54.74
2023-02-09T06:59:23.327Z,55.24
2023-02-09T07:01:54.642Z,54.71
2023-02-09T07:04:22.257Z,55.27
2023-02-09T07:06:49.100Z,55.12
2023-02-09T07:09:15.993Z,55.07
2023-02-09T07:11:43.723Z,54.79
2023-02-09T07:14:10.641Z,54.90
2023-02-09T07:16:37.547Z,54.62
2023-02-09T07:19:04.488Z,54.99
2023-02-09T07:21:31.378Z,54.71
2023-02-09T07:23:58.299Z,55.16
2023-02-09T07:26:25.302Z,54.91
2023-02-09T07:28:52.178Z,54.79
2023-02-09T07:31:19.425Z,54.95
2023-02-09T07:33:46.743Z,54.95
2023-02-09T07:36:17.993Z,54.89
2023-02-09T07:38:45.721Z,54.97
2023-02-09T07:41:19.597Z,54.58
2023-02-09T07:43:47.383Z,54.73
2023-02-09T07:46:17.756Z,54.25
2023-02-09T07:48:44.685Z,54.56
2023-02-09T07:51:17.067Z,54.66
2023-02-09T07:53:44.014Z,54.70
2023-02-09T07:56:10.879Z,54.27
2023-02-09T07:58:37.797Z,54.49
2023-02-09T08:01:08.235Z,54.32
2023-02-09T08:03:36.095Z,54.50
2023-02-09T08:06:19.608Z,54.18
2023-02-09T08:08:49.004Z,54.31
2023-02-09T08:11:27.786Z,54.21
2023-02-09T08:13:56.825Z,54.16
2023-02-09T08:16:29.126Z,54.16
2023-02-09T08:19:14.286Z,54.12
2023-02-09T08:21:45.439Z,53.79
2023-02-09T08:24:14.430Z,53.90
2023-02-09T08:26:41.857Z,54.09
2023-02-09T08:29:10.684Z,53.94
2023-02-09T08:31:37.830Z,53.49
2023-02-09T08:34:04.875Z,53.81
2023-02-09T08:36:32.188Z,53.79
2023-02-09T08:38:59.100Z,53.65
2023-02-09T08:41:26.000Z,53.94
2023-02-09T08:43:52.934Z,53.92
2023-02-09T08:46:19.983Z,53.82
2023-02-09T08:48:47.602Z,53.80
2023-02-09T08:51:15.919Z,53.96
2023-02-09T08:53:43.402Z,53.64
2023-02-09T08:56:10.384Z,53.53
2023-02-09T08:58:37.311Z,54.20
2023-02-09T09:01:05.389Z,54.20
2023-02-09T09:03:33.121Z,54.15
2023-02-09T09:06:02.703Z,54.13
2023-02-09T09:08:31.049Z,54.05
2023-02-09T09:10:58.587Z,53.94
2023-02-09T09:13:25.963Z,53.91
2023-02-09T09:15:55.235Z,53.59
2023-02-09T09:18:24.391Z,53.84
2023-02-09T09:20:51.720Z,53.96
2023-02-09T09:23:18.990Z,53.78
2023-02-09T09:25:46.457Z,53.35
2023-02-09T09:28:13.598Z,53.03
2023-02-09T09:30:40.501Z,52.23
2023-02-09T09:33:07.627Z,52.36
2023-02-09T09:35:34.574Z,51.93
2023-02-09T09:38:01.676Z,51.62
2023-02-09T09:40:33.485Z,51.45
2023-02-09T09:43:08.198Z,51.67
2023-02-09T09:45:38.677Z,51.53
2023-02-09T09:48:17.160Z,51.09
2023-02-09T09:50:44.738Z,51.20
2023-02-09T09:53:32.998Z,50.67
2023-02-09T09:56:07.524Z,50.92
2023-02-09T09:58:35.981Z,50.43
2023-02-09T10:01:02.929Z,50.90
2023-02-09T10:03:29.826Z,50.86
2023-02-09T10:06:02.200Z,50.12
2023-02-09T10:08:45.574Z,50.18
2023-02-09T10:11:17.025Z,50.06
2023-02-09T10:13:50.197Z,49.40
2023-02-09T10:16:34.399Z,49.33
2023-02-09T10:19:06.699Z,49.20
2023-02-09T10:21:36.077Z,49.36
2023-02-09T10:24:28.297Z,49.24
2023-02-09T10:27:14.476Z,49.54
2023-02-09T10:29:42.133Z,49.44
2023-02-09T10:32:15.579Z,49.29
2023-02-09T10:34:49.742Z,48.77
2023-02-09T10:37:43.825Z,48.69
2023-02-09T10:40:34.467Z,47.95
2023-02-09T10:43:06.812Z,48.54
2023-02-09T10:45:43.358Z,48.05
2023-02-09T10:48:13.160Z,48.47
2023-02-09T10:50:58.046Z,48.91
2023-02-09T10:53:38.826Z,48.72
2023-02-09T10:56:18.718Z,48.25
2023-02-09T10:58:53.764Z,48.73
2023-02-09T11:01:26.065Z,48.27
2023-02-09T11:04:03.350Z,47.51
2023-02-09T11:06:44.278Z,47.72
2023-02-09T11:09:20.516Z,47.32
2023-02-09T11:11:47.435Z,47.84
2023-02-09T11:14:17.529Z,47.52
2023-02-09T11:17:29.300Z,47.46
2023-02-09T11:20:17.577Z,47.27
2023-02-09T11:23:31.242Z,46.54
2023-02-09T11:26:10.442Z,46.36
2023-02-09T11:29:03.816Z,46.31
2023-02-09T11:31:47.101Z,46.15
2023-02-09T11:34:50.821Z,46.27
2023-02-09T11:38:01.927Z,46.58
2023-02-09T11:40:40.946Z,46.25
2023-02-09T11:43:26.624Z,46.18
2023-02-09T11:46:03.726Z,46.36
2023-02-09T11:49:01.926Z,46.17
2023-02-09T11:51:30.972Z,45.42
2023-02-09T11:54:24.441Z,46.06
2023-02-09T11:57:01.157Z,45.41
2023-02-09T11:59:43.804Z,45.01
2023-02-09T12:02:52.154Z,45.32
2023-02-09T12:05:21.035Z,45.45
2023-02-09T12:08:26.718Z,45.60
2023-02-09T12:11:20.421Z,45.92
2023-02-09T12:14:30.088Z,45.50
2023-02-09T12:17:46.950Z,45.20
2023-02-09T12:20:36.215Z,44.93
2023-02-09T12:23:14.831Z,44.80
2023-02-09T12:25:59.934Z,44.36
2023-02-09T12:28:32.648Z,43.60
2023-02-09T12:31:17.069Z,43.09
2023-02-09T12:33:47.176Z,43.17
2023-02-09T12:36:14.055Z,43.16
2023-02-09T12:39:23.892Z,42.72
2023-02-09T12:41:50.844Z,43.16
2023-02-09T12:44:18.419Z,43.29
2023-02-09T12:46:45.348Z,43.46
2023-02-09T12:49:12.282Z,42.62
2023-02-09T12:51:53.996Z,43.20
2023-02-09T12:54:47.025Z,42.87
2023-02-09T12:57:16.778Z,42.53
2023-02-09T12:59:52.634Z,42.85
2023-02-09T13:02:27.252Z,42.49
2023-02-09T13:05:08.040Z,42.33
2023-02-09T13:07:51.584Z,42.13
2023-02-09T13:10:41.773Z,42.05
2023-02-09T13:13:11.615Z,42.00
2023-02-09T13:16:25.439Z,42.08
2023-02-09T13:19:25.370Z,42.19
2023-02-09T13:22:19.227Z,42.43
2023-02-09T13:25:14.560Z,42.20
2023-02-09T13:27:49.782Z,41.80
2023-02-09T13:30:33.876Z,41.43
2023-02-09T13:33:32.294Z,41.91
2023-02-09T13:36:25.295Z,42.28
2023-02-09T13:38:53.098Z,42.72
2023-02-09T13:41:40.916Z,42.46
2023-02-09T13:44:29.967Z,42.46
2023-02-09T13:47:00.390Z,42.02
2023-02-09T13:49:29.486Z,42.36
2023-02-09T13:52:15.609Z,42.76
2023-02-09T13:54:43.875Z,42.96
2023-02-09T13:57:24.898Z,42.56
2023-02-09T13:59:51.816Z,42.69
2023-02-09T14:02:25.023Z,42.33
2023-02-09T14:04:57.490Z,42.56
2023-02-09T14:07:30.766Z,42.45
2023-02-09T14:10:17.195Z,42.39
2023-02-09T14:12:55.925Z,42.67
2023-02-09T14:15:59.043Z,42.52
2023-02-09T14:18:54.339Z,42.84
2023-02-09T14:21:31.633Z,42.78
2023-02-09T14:23:58.410Z,42.45
2023-02-09T14:26:53.811Z,42.46
2023-02-09T14:29:30.421Z,42.59
2023-02-09T14:32:34.153Z,41.99
2023-02-09T14:35:28.796Z,42.21
2023-02-09T14:38:01.927Z,41.95
2023-02-09T14:40:29.664Z,42.26
2023-02-09T14:43:10.806Z,42.58
2023-02-09T14:45:47.759Z,42.75
2023-02-09T14:48:22.436Z,42.71
2023-02-09T14:50:54.794Z,42.54
2023-02-09T14:53:23.788Z,42.54
2023-02-09T14:55:50.719Z,42.85
2023-02-09T14:58:22.347Z,42.43
2023-02-09T15:00:51.007Z,43.28
2023-02-09T15:03:17.937Z,42.98
2023-02-09T15:05:46.470Z,43.41
2023-02-09T15:08:21.315Z,43.39
2023-02-09T15:10:53.372Z,43.09
2023-02-09T15:13:21.386Z,43.11
2023-02-09T15:15:48.692Z,43.22
2023-02-09T15:18:25.113Z,43.50
2023-02-09T15:20:52.419Z,43.66
2023-02-09T15:23:19.743Z,43.29
2023-02-09T15:25:47.079Z,43.46
2023-02-09T15:28:28.111Z,43.34
2023-02-09T15:30:56.915Z,43.20
2023-02-09T15:33:26.423Z,43.54
2023-02-09T15:35:53.368Z,43.25
2023-02-09T15:38:20.621Z,43.79
2023-02-09T15:41:08.406Z,43.42
2023-02-09T15:43:54.187Z,43.53
2023-02-09T15:46:40.362Z,43.70
2023-02-09T15:49:07.530Z,44.47
2023-02-09T15:51:38.015Z,44.72
2023-02-09T15:54:17.265Z,44.36
2023-02-09T15:56:44.233Z,44.59
2023-02-09T15:59:21.358Z,44.17
2023-02-09T16:01:49.170Z,44.19
2023-02-09T16:04:16.427Z,44.14
2023-02-09T16:06:49.752Z,44.47
2023-02-09T16:09:23.584Z,44.88
2023-02-09T16:11:50.532Z,44.66
2023-02-09T16:14:20.763Z,44.68
2023-02-09T16:16:48.362Z,44.44
2023-02-09T16:19:16.774Z,44.53
2023-02-09T16:21:49.138Z,44.23
2023-02-09T16:24:29.245Z,44.63
2023-02-09T16:26:57.772Z,44.83
2023-02-09T16:29:25.892Z,44.25
2023-02-09T16:31:52.917Z,44.87
2023-02-09T16:34:19.832Z,44.68
2023-02-09T16:36:48.638Z,44.74
2023-02-09T16:39:21.134Z,44.64
2023-02-09T16:41:49.762Z,44.63
2023-02-09T16:44:20.836Z,44.62
2023-02-09T16:46:50.902Z,44.83
2023-02-09T16:49:43.283Z,44.74
2023-02-09T16:52:21.828Z,45.04
2023-02-09T16:54:55.152Z,45.01
2023-02-09T16:57:23.552Z,45.06
2023-02-09T16:59:51.910Z,45.45
2023-02-09T17:02:43.834Z,45.76
2023-02-09T17:05:34.903Z,45.08
2023-02-09T17:08:07.847Z,45.65
2023-02-09T17:10:35.352Z,45.71
2023-02-09T17:13:04.589Z,45.97
2023-02-09T17:15:44.387Z,45.95
2023-02-09T17:18:23.816Z,45.96
2023-02-09T17:21:19.144Z,45.78
2023-02-09T17:23:46.030Z,46.00
2023-02-09T17:26:13.779Z,45.95
2023-02-09T17:28:43.047Z,45.79
2023-02-09T17:31:20.876Z,45.74
2023-02-09T17:33:52.613Z,45.92
2023-02-09T17:36:28.899Z,46.36
2023-02-09T17:39:00.174Z,46.30
2023-02-09T17:41:43.147Z,46.64
2023-02-09T17:44:39.188Z,46.07
2023-02-09T17:47:18.013Z,46.55
2023-02-09T17:49:46.473Z,46.81
2023-02-09T17:52:20.078Z,46.26
2023-02-09T17:54:49.368Z,46.49
2023-02-09T17:57:17.876Z,46.49
2023-02-09T17:59:45.986Z,46.67
2023-02-09T18:02:16.722Z,46.56
2023-02-09T18:04:43.851Z,47.08
2023-02-09T18:07:11.418Z,47.29
2023-02-09T18:09:38.332Z,47.34
2023-02-09T18:12:13.826Z,47.46
2023-02-09T18:14:40.719Z,47.14
2023-02-09T18:17:07.662Z,47.57
2023-02-09T18:19:34.573Z,47.14
2023-02-09T18:22:02.953Z,47.40
2023-02-09T18:24:33.654Z,47.68
2023-02-09T18:27:00.701Z,47.60
2023-02-09T18:29:30.033Z,47.60
2023-02-09T18:32:02.250Z,48.12
2023-02-09T18:34:29.353Z,47.54
2023-02-09T18:36:56.368Z,48.03
2023-02-09T18:39:23.270Z,47.68
2023-02-09T18:41:54.553Z,48.12
2023-02-09T18:44:29.006Z,48.32
2023-02-09T18:46:57.682Z,47.89
2023-02-09T18:49:24.816Z,47.96
2023-02-09T18:51:52.245Z,48.23
2023-02-09T18:54:19.925Z,48.39
2023-02-09T18:56:47.527Z,48.35
2023-02-09T18:59:17.716Z,48.22
2023-02-09T19:01:45.184Z,48.38
2023-02-09T19:04:13.058Z,49.08
2023-02-09T19:06:40.043Z,48.78
2023-02-09T19:09:06.943Z,48.92
2023-02-09T19:11:33.906Z,48.81
2023-02-09T19:14:19.084Z,49.06
2023-02-09T19:16:46.009Z,49.00
2023-02-09T19:19:13.415Z,49.08
2023-02-09T19:21:40.313Z,49.33
2023-02-09T19:24:07.270Z,49.00
2023-02-09T19:26:34.161Z,48.81
2023-02-09T19:29:01.084Z,49.12
2023-02-09T19:31:28.041Z,49.26
2023-02-09T19:33:56.604Z,48.52
2023-02-09T19:36:25.157Z,48.61
2023-02-09T19:38:52.052Z,48.45
2023-02-09T19:41:20.452Z,47.92
2023-02-09T19:43:47.381Z,48.63
2023-02-09T19:46:14.330Z,48.68
2023-02-09T19:48:41.667Z,48.27
2023-02-09T19:51:08.935Z,47.82
2023-02-09T19:53:36.881Z,48.10
2023-02-09T19:56:03.910Z,47.95
2023-02-09T19:58:31.045Z,47.69
2023-02-09T20:00:58.006Z,47.88
2023-02-09T20:03:25.289Z,47.74
2023-02-09T20:05:52.325Z,47.85
2023-02-09T20:08:20.340Z,48.00
2023-02-09T20:10:47.774Z,48.22
2023-02-09T20:13:15.755Z,47.69
2023-02-09T20:15:43.798Z,48.16
2023-02-09T20:18:12.633Z,47.92
2023-02-09T20:20:42.086Z,48.08
2023-02-09T20:23:10.275Z,48.01
2023-02-09T20:25:41.413Z,48.26
2023-02-09T20:28:08.759Z,48.28
2023-02-09T20:30:35.659Z,47.88
2023-02-09T20:33:02.564Z,47.99
2023-02-09T20:35:29.508Z,48.26
2023-02-09T20:37:56.429Z,48.07
2023-02-09T20:40:23.841Z,47.98
2023-02-09T20:43:09.238Z,47.68
2023-02-09T20:45:54.785Z,47.76
2023-02-09T20:48:21.720Z,47.61
2023-02-09T20:50:49.115Z,47.67
2023-02-09T20:53:16.157Z,47.86
2023-02-09T20:55:43.338Z,47.73
2023-02-09T20:58:13.447Z,47.67
2023-02-09T21:00:42.452Z,47.76
2023-02-09T21:03:09.571Z,48.25
2023-02-09T21:05:36.465Z,47.97
2023-02-09T21:08:04.542Z,48.29
2023-02-09T21:10:35.687Z,48.22
2023-02-09T21:13:07.523Z,47.77
2023-02-09T21:15:39.205Z,47.89
2023-02-09T21:18:06.783Z,48.21
2023-02-09T21:20:34.973Z,47.95
2023-02-09T21:23:02.007Z,47.91
2023-02-09T21:25:28.954Z,48.30
2023-02-09T21:27:56.049Z,47.81
2023-02-09T21:30:23.089Z,48.17
2023-02-09T21:32:49.971Z,48.37
2023-02-09T21:35:17.023Z,48.05
2023-02-09T21:37:44.505Z,48.22
2023-02-09T21:40:12.956Z,48.18
2023-02-09T21:42:40.987Z,47.92
2023-02-09T21:45:08.675Z,48.09
2023-02-09T21:47:38.566Z,48.27
2023-02-09T21:50:08.755Z,48.11
2023-02-09T21:52:35.935Z,48.23
2023-02-09T21:55:03.671Z,48.43
2023-02-09T21:57:30.676Z,48.49
2023-02-09T21:59:58.972Z,48.65
2023-02-09T22:02:27.414Z,48.22
2023-02-09T22:04:54.404Z,48.65
2023-02-09T22:07:21.321Z,48.76
2023-02-09T22:09:48.208Z,48.93
2023-02-09T22:12:15.086Z,49.05
2023-02-09T22:14:41.973Z,48.87
2023-02-09T22:17:08.829Z,49.06
2023-02-09T22:19:36.333Z,49.17
2023-02-09T22:22:04.103Z,48.82
2023-02-09T22:24:34.652Z,48.94
2023-02-09T22:27:02.767Z,49.19
2023-02-09T22:29:29.943Z,49.95
2023-02-09T22:31:58.191Z,49.88
2023-02-09T22:34:25.274Z,49.93
2023-02-09T22:36:53.133Z,50.09
2023-02-09T22:39:20.707Z,50.23
2023-02-09T22:41:48.373Z,50.02
2023-02-09T22:44:16.860Z,50.37
2023-02-09T22:46:45.341Z,50.52
2023-02-09T22:49:20.720Z,50.37
2023-02-09T22:51:49.291Z,50.63
2023-02-09T22:54:18.622Z,50.49
2023-02-09T22:56:45.564Z,50.82
2023-02-09T22:59:14.271Z,50.81
2023-02-09T23:01:42.105Z,50.25
2023-02-09T23:04:09.413Z,50.46
2023-02-09T23:06:36.317Z,50.38
2023-02-09T23:09:07.313Z,50.92
2023-02-09T23:11:35.686Z,50.59
2023-02-09T23:14:08.984Z,51.11
2023-02-09T23:16:37.167Z,51.07
2023-02-09T23:19:07.640Z,50.99
2023-02-09T23:21:39.336Z,51.20
2023-02-09T23:24:07.430Z,51.66
2023-02-09T23:26:35.084Z,51.74
2023-02-09T23:29:05.147Z,51.91
2023-02-09T23:31:32.361Z,52.60
2023-02-09T23:33:59.596Z,52.28
2023-02-09T23:36:30.744Z,52.75
2023-02-09T23:39:05.041Z,52.88
2023-02-09T23:41:32.867Z,52.61
2023-02-09T23:44:01.414Z,52.96
2023-02-09T23:46:29.181Z,53.64
2023-02-09T23:48:57.189Z,53.36
2023-02-09T23:51:33.710Z,53.88
2023-02-09T23:54:04.747Z,53.49
2023-02-09T23:56:36.781Z,53.57
2023-02-09T23:59:12.951Z,53.70
